sensor_id;sensor_type;location;lat;lon;timestamp;P1;durP1;ratioP1;P2;durP2;ratioP2
23549;SDS011;11953;49.010;8.608;2022-07-10T00:01:55;3.20;;;2.47;;
23549;SDS011;11953;49.010;8.608;2022-07-10T00:04:41;6.07;;;2.20;;
23549;SDS011;11953;49.010;8.608;2022-07-10T00:07:28;3.40;;;2.22;;
23549;SDS011;11953;49.010;8.608;2022-07-10T00:10:14;3.13;;;2.20;;
23549;SDS011;11953;49.010;8.608;2022-07-10T00:13:01;3.55;;;2.00;;
23549;SDS011;11953;49.010;8.608;2022-07-10T00:15:48;2.70;;;2.20;;
23549;SDS011;11953;49.010;8.608;2022-07-10T00:18:36;3.63;;;2.20;;
23549;SDS011;11953;49.010;8.608;2022-07-10T00:21:24;3.17;;;1.90;;
23549;SDS011;11953;49.010;8.608;2022-07-10T00:24:11;3.88;;;2.20;;
23549;SDS011;11953;49.010;8.608;2022-07-10T00:26:58;3.45;;;2.20;;
23549;SDS011;11953;49.010;8.608;2022-07-10T00:29:44;3.35;;;2.20;;
23549;SDS011;11953;49.010;8.608;2022-07-10T00:32:31;3.63;;;2.00;;
23549;SDS011;11953;49.010;8.608;2022-07-10T00:35:19;3.40;;;2.83;;
23549;SDS011;11953;49.010;8.608;2022-07-10T00:38:06;6.30;;;2.30;;
23549;SDS011;11953;49.010;8.608;2022-07-10T00:40:53;2.75;;;2.20;;
23549;SDS011;11953;49.010;8.608;2022-07-10T00:43:52;2.53;;;2.20;;
23549;SDS011;11953;49.010;8.608;2022-07-10T00:46:40;3.25;;;2.45;;
23549;SDS011;11953;49.010;8.608;2022-07-10T00:49:27;4.03;;;2.80;;
23549;SDS011;11953;49.010;8.608;2022-07-10T00:52:15;3.92;;;2.47;;
23549;SDS011;11953;49.010;8.608;2022-07-10T00:55:03;3.75;;;2.47;;
23549;SDS011;11953;49.010;8.608;2022-07-10T00:57:50;4.78;;;3.15;;
23549;SDS011;11953;49.010;8.608;2022-07-10T01:00:37;3.60;;;2.60;;
23549;SDS011;11953;49.010;8.608;2022-07-10T01:03:25;4.38;;;2.80;;
23549;SDS011;11953;49.010;8.608;2022-07-10T01:06:11;3.63;;;2.80;;
23549;SDS011;11953;49.010;8.608;2022-07-10T01:09:00;6.43;;;2.70;;
23549;SDS011;11953;49.010;8.608;2022-07-10T01:11:47;3.83;;;3.17;;
23549;SDS011;11953;49.010;8.608;2022-07-10T01:14:33;4.65;;;3.40;;
23549;SDS011;11953;49.010;8.608;2022-07-10T01:17:22;5.00;;;3.88;;
23549;SDS011;11953;49.010;8.608;2022-07-10T01:20:09;4.60;;;3.33;;
23549;SDS011;11953;49.010;8.608;2022-07-10T01:22:58;4.50;;;3.50;;
23549;SDS011;11953;49.010;8.608;2022-07-10T01:25:45;4.03;;;3.13;;
23549;SDS011;11953;49.010;8.608;2022-07-10T01:28:31;6.40;;;3.30;;
23549;SDS011;11953;49.010;8.608;2022-07-10T01:31:20;5.65;;;3.05;;
23549;SDS011;11953;49.010;8.608;2022-07-10T01:34:11;5.50;;;3.05;;
23549;SDS011;11953;49.010;8.608;2022-07-10T01:36:58;4.45;;;3.50;;
23549;SDS011;11953;49.010;8.608;2022-07-10T01:39:46;5.68;;;3.60;;
23549;SDS011;11953;49.010;8.608;2022-07-10T01:42:32;5.22;;;3.25;;
23549;SDS011;11953;49.010;8.608;2022-07-10T01:45:20;4.25;;;3.40;;
23549;SDS011;11953;49.010;8.608;2022-07-10T01:48:06;4.88;;;3.00;;
23549;SDS011;11953;49.010;8.608;2022-07-10T01:50:53;6.72;;;3.20;;
23549;SDS011;11953;49.010;8.608;2022-07-10T01:53:40;7.50;;;3.45;;
23549;SDS011;11953;49.010;8.608;2022-07-10T01:56:28;4.60;;;3.38;;
23549;SDS011;11953;49.010;8.608;2022-07-10T01:59:15;4.53;;;3.65;;
23549;SDS011;11953;49.010;8.608;2022-07-10T02:02:02;5.38;;;3.00;;
23549;SDS011;11953;49.010;8.608;2022-07-10T02:04:49;6.50;;;3.20;;
23549;SDS011;11953;49.010;8.608;2022-07-10T02:07:35;4.78;;;3.47;;
23549;SDS011;11953;49.010;8.608;2022-07-10T02:10:21;5.88;;;3.55;;
23549;SDS011;11953;49.010;8.608;2022-07-10T02:13:10;10.02;;;3.08;;
23549;SDS011;11953;49.010;8.608;2022-07-10T02:15:59;5.18;;;2.95;;
23549;SDS011;11953;49.010;8.608;2022-07-10T02:18:46;5.55;;;3.05;;
23549;SDS011;11953;49.010;8.608;2022-07-10T02:21:33;3.80;;;2.92;;
23549;SDS011;11953;49.010;8.608;2022-07-10T02:24:20;5.25;;;3.20;;
23549;SDS011;11953;49.010;8.608;2022-07-10T02:27:07;4.43;;;2.88;;
23549;SDS011;11953;49.010;8.608;2022-07-10T02:29:55;5.78;;;3.33;;
23549;SDS011;11953;49.010;8.608;2022-07-10T02:32:42;4.70;;;3.40;;
23549;SDS011;11953;49.010;8.608;2022-07-10T02:35:28;6.07;;;3.13;;
23549;SDS011;11953;49.010;8.608;2022-07-10T02:38:15;5.82;;;3.20;;
23549;SDS011;11953;49.010;8.608;2022-07-10T02:41:02;4.85;;;3.08;;
23549;SDS011;11953;49.010;8.608;2022-07-10T02:43:48;4.85;;;2.80;;
23549;SDS011;11953;49.010;8.608;2022-07-10T02:46:36;3.63;;;2.60;;
23549;SDS011;11953;49.010;8.608;2022-07-10T02:49:23;5.03;;;2.60;;
23549;SDS011;11953;49.010;8.608;2022-07-10T02:52:10;3.90;;;2.28;;
23549;SDS011;11953;49.010;8.608;2022-07-10T02:54:57;3.40;;;2.50;;
23549;SDS011;11953;49.010;8.608;2022-07-10T02:57:44;3.90;;;2.22;;
23549;SDS011;11953;49.010;8.608;2022-07-10T03:00:30;5.50;;;2.60;;
23549;SDS011;11953;49.010;8.608;2022-07-10T03:03:18;4.22;;;2.10;;
23549;SDS011;11953;49.010;8.608;2022-07-10T03:06:06;3.20;;;2.20;;
23549;SDS011;11953;49.010;8.608;2022-07-10T03:08:53;5.32;;;2.30;;
23549;SDS011;11953;49.010;8.608;2022-07-10T03:11:39;4.32;;;2.28;;
23549;SDS011;11953;49.010;8.608;2022-07-10T03:14:26;4.82;;;2.22;;
23549;SDS011;11953;49.010;8.608;2022-07-10T03:17:13;4.32;;;1.92;;
23549;SDS011;11953;49.010;8.608;2022-07-10T03:20:01;4.25;;;1.90;;
23549;SDS011;11953;49.010;8.608;2022-07-10T03:22:48;4.70;;;2.13;;
23549;SDS011;11953;49.010;8.608;2022-07-10T03:25:34;5.65;;;2.45;;
23549;SDS011;11953;49.010;8.608;2022-07-10T03:28:22;4.05;;;2.10;;
23549;SDS011;11953;49.010;8.608;2022-07-10T03:31:09;5.68;;;2.60;;
23549;SDS011;11953;49.010;8.608;2022-07-10T03:33:56;3.97;;;2.30;;
23549;SDS011;11953;49.010;8.608;2022-07-10T03:36:43;5.80;;;3.03;;
23549;SDS011;11953;49.010;8.608;2022-07-10T03:39:30;3.92;;;2.30;;
23549;SDS011;11953;49.010;8.608;2022-07-10T03:42:16;3.95;;;1.95;;
23549;SDS011;11953;49.010;8.608;2022-07-10T03:45:03;2.25;;;1.80;;
23549;SDS011;11953;49.010;8.608;2022-07-10T03:47:51;3.38;;;1.95;;
23549;SDS011;11953;49.010;8.608;2022-07-10T03:50:37;4.30;;;2.03;;
23549;SDS011;11953;49.010;8.608;2022-07-10T03:53:25;4.15;;;2.00;;
23549;SDS011;11953;49.010;8.608;2022-07-10T03:56:12;3.03;;;1.90;;
23549;SDS011;11953;49.010;8.608;2022-07-10T03:59:19;2.13;;;1.65;;
23549;SDS011;11953;49.010;8.608;2022-07-10T04:02:05;4.40;;;1.60;;
23549;SDS011;11953;49.010;8.608;2022-07-10T04:04:52;3.58;;;1.75;;
23549;SDS011;11953;49.010;8.608;2022-07-10T04:07:39;3.92;;;2.30;;
23549;SDS011;11953;49.010;8.608;2022-07-10T04:10:27;4.22;;;2.00;;
23549;SDS011;11953;49.010;8.608;2022-07-10T04:13:15;4.97;;;1.70;;
23549;SDS011;11953;49.010;8.608;2022-07-10T04:16:02;6.07;;;1.83;;
23549;SDS011;11953;49.010;8.608;2022-07-10T04:18:49;6.40;;;1.90;;
23549;SDS011;11953;49.010;8.608;2022-07-10T04:21:36;6.05;;;2.03;;
23549;SDS011;11953;49.010;8.608;2022-07-10T04:24:23;6.05;;;1.90;;
23549;SDS011;11953;49.010;8.608;2022-07-10T04:27:11;2.95;;;1.60;;
23549;SDS011;11953;49.010;8.608;2022-07-10T04:29:58;3.17;;;1.42;;
23549;SDS011;11953;49.010;8.608;2022-07-10T04:32:45;3.78;;;1.38;;
23549;SDS011;11953;49.010;8.608;2022-07-10T04:35:31;4.20;;;1.20;;
23549;SDS011;11953;49.010;8.608;2022-07-10T04:38:18;3.03;;;1.33;;
23549;SDS011;11953;49.010;8.608;2022-07-10T04:41:05;4.82;;;1.50;;
23549;SDS011;11953;49.010;8.608;2022-07-10T04:43:52;3.47;;;1.50;;
23549;SDS011;11953;49.010;8.608;2022-07-10T04:46:39;2.53;;;1.20;;
23549;SDS011;11953;49.010;8.608;2022-07-10T04:49:26;7.03;;;1.58;;
23549;SDS011;11953;49.010;8.608;2022-07-10T04:52:13;3.80;;;1.60;;
23549;SDS011;11953;49.010;8.608;2022-07-10T04:55:00;4.28;;;1.92;;
23549;SDS011;11953;49.010;8.608;2022-07-10T04:57:47;6.38;;;1.38;;
23549;SDS011;11953;49.010;8.608;2022-07-10T05:00:35;6.35;;;1.52;;
23549;SDS011;11953;49.010;8.608;2022-07-10T05:03:22;2.38;;;1.17;;
23549;SDS011;11953;49.010;8.608;2022-07-10T05:06:09;2.13;;;1.02;;
23549;SDS011;11953;49.010;8.608;2022-07-10T05:08:56;11.73;;;1.40;;
23549;SDS011;11953;49.010;8.608;2022-07-10T05:11:42;3.28;;;1.27;;
23549;SDS011;11953;49.010;8.608;2022-07-10T05:14:29;3.97;;;1.05;;
23549;SDS011;11953;49.010;8.608;2022-07-10T05:17:17;3.15;;;1.38;;
23549;SDS011;11953;49.010;8.608;2022-07-10T05:20:04;3.40;;;1.10;;
23549;SDS011;11953;49.010;8.608;2022-07-10T05:22:51;3.67;;;1.35;;
23549;SDS011;11953;49.010;8.608;2022-07-10T05:25:37;3.38;;;1.20;;
23549;SDS011;11953;49.010;8.608;2022-07-10T05:28:25;3.50;;;1.27;;
23549;SDS011;11953;49.010;8.608;2022-07-10T05:31:11;4.13;;;1.17;;
23549;SDS011;11953;49.010;8.608;2022-07-10T05:34:00;2.25;;;1.10;;
23549;SDS011;11953;49.010;8.608;2022-07-10T05:36:46;6.80;;;1.17;;
23549;SDS011;11953;49.010;8.608;2022-07-10T05:39:33;3.38;;;1.17;;
23549;SDS011;11953;49.010;8.608;2022-07-10T05:42:20;2.17;;;1.00;;
23549;SDS011;11953;49.010;8.608;2022-07-10T05:45:07;2.42;;;0.93;;
23549;SDS011;11953;49.010;8.608;2022-07-10T05:47:54;4.38;;;1.20;;
23549;SDS011;11953;49.010;8.608;2022-07-10T05:50:41;5.43;;;1.10;;
23549;SDS011;11953;49.010;8.608;2022-07-10T05:53:28;5.20;;;1.55;;
23549;SDS011;11953;49.010;8.608;2022-07-10T05:56:15;4.07;;;1.35;;
23549;SDS011;11953;49.010;8.608;2022-07-10T05:59:02;3.20;;;1.20;;
23549;SDS011;11953;49.010;8.608;2022-07-10T06:01:48;4.13;;;1.20;;
23549;SDS011;11953;49.010;8.608;2022-07-10T06:04:35;1.38;;;1.02;;
23549;SDS011;11953;49.010;8.608;2022-07-10T06:07:24;4.50;;;1.00;;
23549;SDS011;11953;49.010;8.608;2022-07-10T06:10:11;5.38;;;1.30;;
23549;SDS011;11953;49.010;8.608;2022-07-10T06:12:58;3.70;;;1.27;;
23549;SDS011;11953;49.010;8.608;2022-07-10T06:15:45;5.88;;;1.30;;
23549;SDS011;11953;49.010;8.608;2022-07-10T06:18:32;4.50;;;1.00;;
23549;SDS011;11953;49.010;8.608;2022-07-10T06:21:19;4.55;;;1.23;;
23549;SDS011;11953;49.010;8.608;2022-07-10T06:24:09;4.53;;;1.27;;
23549;SDS011;11953;49.010;8.608;2022-07-10T06:26:56;3.70;;;1.00;;
23549;SDS011;11953;49.010;8.608;2022-07-10T06:29:43;3.05;;;1.00;;
23549;SDS011;11953;49.010;8.608;2022-07-10T06:32:29;3.83;;;1.05;;
23549;SDS011;11953;49.010;8.608;2022-07-10T06:35:16;1.35;;;0.90;;
23549;SDS011;11953;49.010;8.608;2022-07-10T06:38:03;4.22;;;1.25;;
23549;SDS011;11953;49.010;8.608;2022-07-10T06:40:51;4.47;;;1.10;;
23549;SDS011;11953;49.010;8.608;2022-07-10T06:43:39;2.58;;;1.10;;
23549;SDS011;11953;49.010;8.608;2022-07-10T06:46:26;4.80;;;1.00;;
23549;SDS011;11953;49.010;8.608;2022-07-10T06:49:13;6.50;;;1.42;;
23549;SDS011;11953;49.010;8.608;2022-07-10T06:51:59;3.05;;;1.00;;
23549;SDS011;11953;49.010;8.608;2022-07-10T06:54:55;2.30;;;1.20;;
23549;SDS011;11953;49.010;8.608;2022-07-10T06:57:43;3.88;;;1.35;;
23549;SDS011;11953;49.010;8.608;2022-07-10T07:00:29;5.13;;;1.20;;
23549;SDS011;11953;49.010;8.608;2022-07-10T07:03:16;3.80;;;1.33;;
23549;SDS011;11953;49.010;8.608;2022-07-10T07:06:04;4.55;;;1.23;;
23549;SDS011;11953;49.010;8.608;2022-07-10T07:08:51;3.38;;;1.00;;
23549;SDS011;11953;49.010;8.608;2022-07-10T07:11:38;2.20;;;1.02;;
23549;SDS011;11953;49.010;8.608;2022-07-10T07:14:25;5.97;;;1.30;;
23549;SDS011;11953;49.010;8.608;2022-07-10T07:17:19;4.13;;;1.17;;
23549;SDS011;11953;49.010;8.608;2022-07-10T07:20:10;4.45;;;1.15;;
23549;SDS011;11953;49.010;8.608;2022-07-10T07:23:14;3.10;;;1.20;;
23549;SDS011;11953;49.010;8.608;2022-07-10T07:26:01;2.72;;;1.00;;
23549;SDS011;11953;49.010;8.608;2022-07-10T07:28:47;3.47;;;0.90;;
23549;SDS011;11953;49.010;8.608;2022-07-10T07:31:36;2.50;;;0.90;;
23549;SDS011;11953;49.010;8.608;2022-07-10T07:34:23;2.40;;;0.90;;
23549;SDS011;11953;49.010;8.608;2022-07-10T07:37:09;2.83;;;0.88;;
23549;SDS011;11953;49.010;8.608;2022-07-10T07:39:56;3.75;;;1.05;;
23549;SDS011;11953;49.010;8.608;2022-07-10T07:42:44;4.10;;;1.10;;
23549;SDS011;11953;49.010;8.608;2022-07-10T07:45:31;4.53;;;1.10;;
23549;SDS011;11953;49.010;8.608;2022-07-10T07:48:19;5.75;;;1.15;;
23549;SDS011;11953;49.010;8.608;2022-07-10T07:51:06;8.48;;;1.17;;
23549;SDS011;11953;49.010;8.608;2022-07-10T07:53:53;3.60;;;1.00;;
23549;SDS011;11953;49.010;8.608;2022-07-10T07:56:39;3.35;;;1.08;;
23549;SDS011;11953;49.010;8.608;2022-07-10T07:59:27;8.23;;;1.13;;
23549;SDS011;11953;49.010;8.608;2022-07-10T08:02:14;3.50;;;1.00;;
23549;SDS011;11953;49.010;8.608;2022-07-10T08:05:02;3.17;;;1.35;;
23549;SDS011;11953;49.010;8.608;2022-07-10T08:07:51;3.08;;;1.05;;
23549;SDS011;11953;49.010;8.608;2022-07-10T08:10:39;2.97;;;1.10;;
23549;SDS011;11953;49.010;8.608;2022-07-10T08:13:29;3.08;;;1.00;;
23549;SDS011;11953;49.010;8.608;2022-07-10T08:16:17;1.98;;;0.70;;
23549;SDS011;11953;49.010;8.608;2022-07-10T08:19:04;4.00;;;0.90;;
23549;SDS011;11953;49.010;8.608;2022-07-10T08:21:53;3.90;;;1.13;;
23549;SDS011;11953;49.010;8.608;2022-07-10T08:24:39;6.07;;;1.08;;
23549;SDS011;11953;49.010;8.608;2022-07-10T08:27:26;3.88;;;1.20;;
23549;SDS011;11953;49.010;8.608;2022-07-10T08:30:13;2.33;;;0.90;;
23549;SDS011;11953;49.010;8.608;2022-07-10T08:33:00;1.95;;;0.90;;
23549;SDS011;11953;49.010;8.608;2022-07-10T08:35:47;3.65;;;0.90;;
23549;SDS011;11953;49.010;8.608;2022-07-10T08:38:35;3.15;;;1.00;;
23549;SDS011;11953;49.010;8.608;2022-07-10T08:41:22;3.80;;;0.98;;
23549;SDS011;11953;49.010;8.608;2022-07-10T08:44:11;4.00;;;1.20;;
23549;SDS011;11953;49.010;8.608;2022-07-10T08:46:59;2.70;;;1.00;;
23549;SDS011;11953;49.010;8.608;2022-07-10T08:49:47;2.72;;;0.90;;
23549;SDS011;11953;49.010;8.608;2022-07-10T08:52:37;3.10;;;1.00;;
23549;SDS011;11953;49.010;8.608;2022-07-10T08:55:30;4.45;;;1.13;;
23549;SDS011;11953;49.010;8.608;2022-07-10T08:58:17;2.78;;;0.55;;
23549;SDS011;11953;49.010;8.608;2022-07-10T09:01:05;3.00;;;0.85;;
23549;SDS011;11953;49.010;8.608;2022-07-10T09:03:52;4.03;;;0.88;;
23549;SDS011;11953;49.010;8.608;2022-07-10T09:06:39;3.25;;;0.98;;
23549;SDS011;11953;49.010;8.608;2022-07-10T09:09:26;2.40;;;0.80;;
23549;SDS011;11953;49.010;8.608;2022-07-10T09:12:14;4.28;;;0.90;;
23549;SDS011;11953;49.010;8.608;2022-07-10T09:15:14;4.45;;;0.90;;
23549;SDS011;11953;49.010;8.608;2022-07-10T09:18:03;1.83;;;0.60;;
23549;SDS011;11953;49.010;8.608;2022-07-10T09:20:52;2.75;;;0.77;;
23549;SDS011;11953;49.010;8.608;2022-07-10T09:23:39;2.45;;;0.70;;
23549;SDS011;11953;49.010;8.608;2022-07-10T09:26:26;1.65;;;0.85;;
23549;SDS011;11953;49.010;8.608;2022-07-10T09:29:15;4.05;;;0.65;;
23549;SDS011;11953;49.010;8.608;2022-07-10T09:32:02;2.75;;;0.70;;
23549;SDS011;11953;49.010;8.608;2022-07-10T09:34:50;3.30;;;0.77;;
23549;SDS011;11953;49.010;8.608;2022-07-10T09:37:58;2.45;;;0.70;;
23549;SDS011;11953;49.010;8.608;2022-07-10T09:40:45;3.50;;;0.90;;
23549;SDS011;11953;49.010;8.608;2022-07-10T09:43:42;5.07;;;0.98;;
23549;SDS011;11953;49.010;8.608;2022-07-10T09:46:32;2.67;;;0.70;;
23549;SDS011;11953;49.010;8.608;2022-07-10T09:49:20;5.30;;;0.65;;
23549;SDS011;11953;49.010;8.608;2022-07-10T09:52:14;4.68;;;0.68;;
23549;SDS011;11953;49.010;8.608;2022-07-10T09:55:01;2.42;;;0.50;;
23549;SDS011;11953;49.010;8.608;2022-07-10T09:57:52;2.50;;;0.52;;
23549;SDS011;11953;49.010;8.608;2022-07-10T10:00:41;4.32;;;0.82;;
23549;SDS011;11953;49.010;8.608;2022-07-10T10:03:34;4.43;;;0.85;;
23549;SDS011;11953;49.010;8.608;2022-07-10T10:06:22;1.83;;;0.50;;
23549;SDS011;11953;49.010;8.608;2022-07-10T10:09:15;2.15;;;0.40;;
23549;SDS011;11953;49.010;8.608;2022-07-10T10:12:11;3.05;;;0.80;;
23549;SDS011;11953;49.010;8.608;2022-07-10T10:15:02;4.35;;;0.60;;
23549;SDS011;11953;49.010;8.608;2022-07-10T10:17:52;4.70;;;0.70;;
23549;SDS011;11953;49.010;8.608;2022-07-10T10:20:41;1.23;;;0.45;;
23549;SDS011;11953;49.010;8.608;2022-07-10T10:23:28;2.25;;;0.40;;
23549;SDS011;11953;49.010;8.608;2022-07-10T10:26:17;1.90;;;0.35;;
23549;SDS011;11953;49.010;8.608;2022-07-10T10:29:04;2.10;;;0.40;;
23549;SDS011;11953;49.010;8.608;2022-07-10T10:31:52;2.67;;;0.50;;
23549;SDS011;11953;49.010;8.608;2022-07-10T10:34:40;3.50;;;0.50;;
23549;SDS011;11953;49.010;8.608;2022-07-10T10:37:36;1.90;;;0.45;;
23549;SDS011;11953;49.010;8.608;2022-07-10T10:40:30;1.63;;;0.45;;
23549;SDS011;11953;49.010;8.608;2022-07-10T10:43:19;1.63;;;0.50;;
23549;SDS011;11953;49.010;8.608;2022-07-10T10:46:23;2.90;;;0.82;;
23549;SDS011;11953;49.010;8.608;2022-07-10T10:49:10;1.30;;;0.30;;
23549;SDS011;11953;49.010;8.608;2022-07-10T10:51:57;2.92;;;0.65;;
23549;SDS011;11953;49.010;8.608;2022-07-10T10:55:02;2.15;;;0.50;;
23549;SDS011;11953;49.010;8.608;2022-07-10T10:58:11;2.67;;;0.60;;
23549;SDS011;11953;49.010;8.608;2022-07-10T11:01:02;3.90;;;0.77;;
23549;SDS011;11953;49.010;8.608;2022-07-10T11:07:02;2.50;;;0.50;;
23549;SDS011;11953;49.010;8.608;2022-07-10T11:09:49;3.03;;;0.43;;
23549;SDS011;11953;49.010;8.608;2022-07-10T11:12:45;1.70;;;0.50;;
23549;SDS011;11953;49.010;8.608;2022-07-10T11:15:44;1.38;;;0.40;;
23549;SDS011;11953;49.010;8.608;2022-07-10T11:18:32;1.60;;;0.52;;
23549;SDS011;11953;49.010;8.608;2022-07-10T11:21:22;3.00;;;0.50;;
23549;SDS011;11953;49.010;8.608;2022-07-10T11:24:11;3.03;;;0.77;;
23549;SDS011;11953;49.010;8.608;2022-07-10T11:27:15;1.65;;;0.47;;
23549;SDS011;11953;49.010;8.608;2022-07-10T11:30:28;1.58;;;0.55;;
23549;SDS011;11953;49.010;8.608;2022-07-10T11:33:28;1.35;;;0.30;;
23549;SDS011;11953;49.010;8.608;2022-07-10T11:36:25;1.77;;;0.60;;
23549;SDS011;11953;49.010;8.608;2022-07-10T11:39:15;2.28;;;0.73;;
23549;SDS011;11953;49.010;8.608;2022-07-10T11:42:02;1.25;;;0.50;;
23549;SDS011;11953;49.010;8.608;2022-07-10T11:44:49;2.67;;;0.60;;
23549;SDS011;11953;49.010;8.608;2022-07-10T11:47:39;2.33;;;0.40;;
23549;SDS011;11953;49.010;8.608;2022-07-10T11:50:26;1.30;;;0.40;;
23549;SDS011;11953;49.010;8.608;2022-07-10T11:53:13;2.83;;;0.52;;
23549;SDS011;11953;49.010;8.608;2022-07-10T11:56:08;2.80;;;0.55;;
23549;SDS011;11953;49.010;8.608;2022-07-10T11:58:56;3.72;;;0.57;;
23549;SDS011;11953;49.010;8.608;2022-07-10T12:01:44;2.60;;;0.50;;
23549;SDS011;11953;49.010;8.608;2022-07-10T12:04:33;2.42;;;0.70;;
23549;SDS011;11953;49.010;8.608;2022-07-10T12:07:20;3.45;;;0.75;;
23549;SDS011;11953;49.010;8.608;2022-07-10T12:10:08;2.67;;;0.63;;
23549;SDS011;11953;49.010;8.608;2022-07-10T12:13:02;2.63;;;0.70;;
23549;SDS011;11953;49.010;8.608;2022-07-10T12:15:50;1.92;;;0.50;;
23549;SDS011;11953;49.010;8.608;2022-07-10T12:18:36;2.33;;;0.60;;
23549;SDS011;11953;49.010;8.608;2022-07-10T12:21:27;1.85;;;0.38;;
23549;SDS011;11953;49.010;8.608;2022-07-10T12:24:15;3.67;;;0.82;;
23549;SDS011;11953;49.010;8.608;2022-07-10T12:27:04;3.60;;;0.40;;
23549;SDS011;11953;49.010;8.608;2022-07-10T12:29:59;2.42;;;0.50;;
23549;SDS011;11953;49.010;8.608;2022-07-10T12:32:47;2.33;;;0.55;;
23549;SDS011;11953;49.010;8.608;2022-07-10T12:35:44;5.40;;;0.70;;
23549;SDS011;11953;49.010;8.608;2022-07-10T12:38:36;5.35;;;0.88;;
23549;SDS011;11953;49.010;8.608;2022-07-10T12:41:24;2.35;;;0.73;;
23549;SDS011;11953;49.010;8.608;2022-07-10T12:44:11;5.28;;;0.80;;
23549;SDS011;11953;49.010;8.608;2022-07-10T12:47:02;2.65;;;0.60;;
23549;SDS011;11953;49.010;8.608;2022-07-10T12:49:54;1.48;;;0.47;;
23549;SDS011;11953;49.010;8.608;2022-07-10T12:52:42;2.78;;;0.50;;
23549;SDS011;11953;49.010;8.608;2022-07-10T12:55:35;2.58;;;0.68;;
23549;SDS011;11953;49.010;8.608;2022-07-10T12:58:23;1.42;;;0.50;;
23549;SDS011;11953;49.010;8.608;2022-07-10T13:01:10;4.38;;;0.52;;
23549;SDS011;11953;49.010;8.608;2022-07-10T13:03:58;2.28;;;0.50;;
23549;SDS011;11953;49.010;8.608;2022-07-10T13:06:45;1.60;;;0.43;;
23549;SDS011;11953;49.010;8.608;2022-07-10T13:09:32;1.95;;;0.47;;
23549;SDS011;11953;49.010;8.608;2022-07-10T13:12:27;3.03;;;0.60;;
23549;SDS011;11953;49.010;8.608;2022-07-10T13:15:14;0.80;;;0.30;;
23549;SDS011;11953;49.010;8.608;2022-07-10T13:18:12;1.85;;;0.40;;
23549;SDS011;11953;49.010;8.608;2022-07-10T13:20:59;2.67;;;0.68;;
23549;SDS011;11953;49.010;8.608;2022-07-10T13:23:47;1.80;;;0.70;;
23549;SDS011;11953;49.010;8.608;2022-07-10T13:26:35;2.10;;;0.60;;
23549;SDS011;11953;49.010;8.608;2022-07-10T13:29:23;1.58;;;0.50;;
23549;SDS011;11953;49.010;8.608;2022-07-10T13:32:10;3.45;;;0.60;;
23549;SDS011;11953;49.010;8.608;2022-07-10T13:34:57;2.42;;;0.50;;
23549;SDS011;11953;49.010;8.608;2022-07-10T13:37:43;4.25;;;0.60;;
23549;SDS011;11953;49.010;8.608;2022-07-10T13:40:32;3.03;;;0.50;;
23549;SDS011;11953;49.010;8.608;2022-07-10T13:43:19;2.38;;;0.55;;
23549;SDS011;11953;49.010;8.608;2022-07-10T13:46:13;2.72;;;0.60;;
23549;SDS011;11953;49.010;8.608;2022-07-10T13:48:59;3.47;;;0.60;;
23549;SDS011;11953;49.010;8.608;2022-07-10T13:51:47;1.65;;;0.57;;
23549;SDS011;11953;49.010;8.608;2022-07-10T13:54:33;1.02;;;0.50;;
23549;SDS011;11953;49.010;8.608;2022-07-10T13:57:20;2.05;;;0.50;;
23549;SDS011;11953;49.010;8.608;2022-07-10T14:00:07;2.33;;;0.50;;
23549;SDS011;11953;49.010;8.608;2022-07-10T14:02:59;2.80;;;0.50;;
23549;SDS011;11953;49.010;8.608;2022-07-10T14:05:45;2.80;;;0.45;;
23549;SDS011;11953;49.010;8.608;2022-07-10T14:08:32;2.88;;;0.60;;
23549;SDS011;11953;49.010;8.608;2022-07-10T14:11:19;1.95;;;0.50;;
23549;SDS011;11953;49.010;8.608;2022-07-10T14:14:06;2.60;;;0.70;;
23549;SDS011;11953;49.010;8.608;2022-07-10T14:16:53;1.65;;;0.45;;
23549;SDS011;11953;49.010;8.608;2022-07-10T14:19:41;2.78;;;0.75;;
23549;SDS011;11953;49.010;8.608;2022-07-10T14:22:27;2.50;;;0.68;;
23549;SDS011;11953;49.010;8.608;2022-07-10T14:25:14;4.95;;;0.80;;
23549;SDS011;11953;49.010;8.608;2022-07-10T14:28:01;3.58;;;0.70;;
23549;SDS011;11953;49.010;8.608;2022-07-10T14:30:48;2.03;;;0.52;;
23549;SDS011;11953;49.010;8.608;2022-07-10T14:33:36;1.92;;;0.70;;
23549;SDS011;11953;49.010;8.608;2022-07-10T14:36:24;2.45;;;0.57;;
23549;SDS011;11953;49.010;8.608;2022-07-10T14:39:12;1.95;;;0.47;;
23549;SDS011;11953;49.010;8.608;2022-07-10T14:41:59;7.05;;;0.60;;
23549;SDS011;11953;49.010;8.608;2022-07-10T14:44:46;3.08;;;1.08;;
23549;SDS011;11953;49.010;8.608;2022-07-10T14:47:33;2.95;;;0.63;;
23549;SDS011;11953;49.010;8.608;2022-07-10T14:50:20;3.80;;;0.80;;
23549;SDS011;11953;49.010;8.608;2022-07-10T14:53:09;3.30;;;0.80;;
23549;SDS011;11953;49.010;8.608;2022-07-10T14:55:56;4.88;;;0.90;;
23549;SDS011;11953;49.010;8.608;2022-07-10T14:58:43;3.20;;;0.88;;
23549;SDS011;11953;49.010;8.608;2022-07-10T15:01:49;1.77;;;0.68;;
23549;SDS011;11953;49.010;8.608;2022-07-10T15:04:37;2.22;;;0.73;;
23549;SDS011;11953;49.010;8.608;2022-07-10T15:07:24;2.05;;;0.60;;
23549;SDS011;11953;49.010;8.608;2022-07-10T15:10:12;3.00;;;0.43;;
23549;SDS011;11953;49.010;8.608;2022-07-10T15:13:01;4.38;;;0.70;;
23549;SDS011;11953;49.010;8.608;2022-07-10T15:15:50;2.08;;;0.60;;
23549;SDS011;11953;49.010;8.608;2022-07-10T15:18:37;1.92;;;0.93;;
23549;SDS011;11953;49.010;8.608;2022-07-10T15:21:24;8.82;;;0.90;;
23549;SDS011;11953;49.010;8.608;2022-07-10T15:24:13;5.65;;;0.75;;
23549;SDS011;11953;49.010;8.608;2022-07-10T15:27:00;2.25;;;0.75;;
23549;SDS011;11953;49.010;8.608;2022-07-10T15:29:48;2.67;;;0.65;;
23549;SDS011;11953;49.010;8.608;2022-07-10T15:32:35;2.20;;;0.60;;
23549;SDS011;11953;49.010;8.608;2022-07-10T15:35:22;2.22;;;0.70;;
23549;SDS011;11953;49.010;8.608;2022-07-10T15:38:09;3.35;;;0.70;;
23549;SDS011;11953;49.010;8.608;2022-07-10T15:40:55;3.05;;;0.60;;
23549;SDS011;11953;49.010;8.608;2022-07-10T15:43:44;1.73;;;0.70;;
23549;SDS011;11953;49.010;8.608;2022-07-10T15:46:31;3.08;;;0.77;;
23549;SDS011;11953;49.010;8.608;2022-07-10T15:49:18;2.05;;;0.65;;
23549;SDS011;11953;49.010;8.608;2022-07-10T15:52:05;2.67;;;0.52;;
23549;SDS011;11953;49.010;8.608;2022-07-10T15:54:52;2.75;;;0.75;;
23549;SDS011;11953;49.010;8.608;2022-07-10T15:57:39;2.70;;;0.70;;
23549;SDS011;11953;49.010;8.608;2022-07-10T16:00:27;1.67;;;0.60;;
23549;SDS011;11953;49.010;8.608;2022-07-10T16:03:15;4.18;;;0.63;;
23549;SDS011;11953;49.010;8.608;2022-07-10T16:06:01;1.73;;;0.63;;
23549;SDS011;11953;49.010;8.608;2022-07-10T16:08:48;4.32;;;0.85;;
23549;SDS011;11953;49.010;8.608;2022-07-10T16:11:35;2.00;;;0.82;;
23549;SDS011;11953;49.010;8.608;2022-07-10T16:14:22;4.78;;;0.80;;
23549;SDS011;11953;49.010;8.608;2022-07-10T16:17:10;3.35;;;0.68;;
23549;SDS011;11953;49.010;8.608;2022-07-10T16:19:57;3.42;;;1.02;;
23549;SDS011;11953;49.010;8.608;2022-07-10T16:22:43;3.78;;;0.68;;
23549;SDS011;11953;49.010;8.608;2022-07-10T16:25:30;2.38;;;0.85;;
23549;SDS011;11953;49.010;8.608;2022-07-10T16:28:33;3.22;;;1.38;;
23549;SDS011;11953;49.010;8.608;2022-07-10T16:31:20;1.85;;;0.70;;
23549;SDS011;11953;49.010;8.608;2022-07-10T16:34:09;2.13;;;0.60;;
23549;SDS011;11953;49.010;8.608;2022-07-10T16:36:56;2.47;;;0.70;;
23549;SDS011;11953;49.010;8.608;2022-07-10T16:39:42;1.27;;;0.60;;
23549;SDS011;11953;49.010;8.608;2022-07-10T16:42:29;2.08;;;0.60;;
23549;SDS011;11953;49.010;8.608;2022-07-10T16:45:16;2.78;;;0.85;;
23549;SDS011;11953;49.010;8.608;2022-07-10T16:48:03;2.33;;;0.60;;
23549;SDS011;11953;49.010;8.608;2022-07-10T16:50:50;2.65;;;0.80;;
23549;SDS011;11953;49.010;8.608;2022-07-10T16:53:38;2.75;;;0.60;;
23549;SDS011;11953;49.010;8.608;2022-07-10T16:56:44;2.78;;;1.15;;
23549;SDS011;11953;49.010;8.608;2022-07-10T16:59:32;1.85;;;0.77;;